Axtell, UT

8:09 AM MDT on August 23, 2014 (GMT -0600)
Carbon County | Change Station
CLOSE
Current Station
Airport
Location: Price,
Elevation: 5955 ft
Nearby Weather Stations

Elev 5955 ft 39.61 °N, 110.75 °W | Updated 16 minutes ago

Overcast
Overcast
50 °F
Feels Like 50 °F
N
16
Wind Variable Wind from WNW
Gusts 24 mph

Today
High -- | Low -- °F
--% Chance of Precip.
Yesterday
High -- | Low -- °F
Precip. -- in
6:47 AM 8:10 PM
Waning Crescent, 4% visible
Pressure 30.01 in
Visibility 10.0 miles
Clouds Overcast 5500 ft
Dew Point 42 °F
Humidity 74%
Rainfall 0.14 in
Snow Depth 0 in
UV 0 out of 12
Pollen 7.20 out of 12
Air Quality Not available.
Flu Activity Not available.
METAR KPUC 231353Z AUTO 30014G21KT 10SM OVC055 10/06 A3013 RMK AO2 PK WND 33032/1306 WSHFT 1304 RAB08E34 SLP163 P0014 T01000056

More Conditions Fewer Conditions

Pressure 30.01 in
Visibility 10.0 miles
Clouds Overcast 5500 ft
Dew Point 42 °F
Humidity 74%
Rainfall 0.14 in
Snow Depth 0 in
UV 0 out of 12
Pollen 7.20 out of 12
Air Quality Not available.
Flu Activity Not available.
METAR KPUC 231353Z AUTO 30014G21KT 10SM OVC055 10/06 A3013 RMK AO2 PK WND 33032/1306 WSHFT 1304 RAB08E34 SLP163 P0014 T01000056

More Conditions Fewer Conditions

10-Day Weather Forecast

Almanac

Astronomy

Aug. 23, 2014 Rise Set
Actual Time 6:47 AM MDT 8:10 PM MDT
Civil Twilight 6:19 AM MDT 8:38 PM MDT
Nautical Twilight 5:46 AM MDT 9:12 PM MDT
Astronomical Twilight 5:10 AM MDT 9:47 PM MDT
Moon 5:07 AM MDT 6:57 PM MDT
Length of Visible Light 14h 19m
Length of Day
13h 23m
Tomorrow will be 2m 22s shorter.
Waning Crescent, 4% of the Moon is Illuminated
Today
Waning Crescent
Aug 25
New
Sep 2
First Quarter
Sep 8
Full
Sep 15
Last Quarter

Today's Extremes

State Highs State Lows

Community

WunderPhotos

Upload Photos

1,746,462 photos uploaded!

WunderBlogs® & News

By Dr. Jeff Masters
Director of Meteorology, Weather Underground
By Kari Strenfel
Meteorologist, Weather Underground
By Christopher C. Burt
Weather Historian, Weather Underground
August 23, 2014
August 23, 2014
August 23, 2014

Nearby

Snow Depth

Station Depth Elevation
Pickle Keg 0 in 9600 ft
Black Flat-U.M. Creek 1 in 9400 ft
Red Pine Ridge 0 in 9200 ft
Box Creek 1 in 9800 ft
Kimberly Mine 0 in 9300 ft

Earthquake Activity

City Distance Mag. Time & Date
No recent earthquake activity has been reported nearby.
Minimum magnitude displayed is 2.5.

Coastal Water Temperatures

Place Temperature
No Stations Reporting

Nearby Weather Stations